createdAt,value
2023-04-27T00:00:38.396Z,14.40
2023-04-27T00:03:18.094Z,26.20
2023-04-27T00:05:46.741Z,23.40
2023-04-27T00:08:15.307Z,17.30
2023-04-27T00:10:43.477Z,18.20
2023-04-27T00:13:11.589Z,22.30
2023-04-27T00:15:39.824Z,17.70
2023-04-27T00:18:08.049Z,21.30
2023-04-27T00:20:36.266Z,13.90
2023-04-27T00:23:04.348Z,9.70
2023-04-27T00:25:32.716Z,11.30
2023-04-27T00:28:00.912Z,10.40
2023-04-27T00:30:29.176Z,12.40
2023-04-27T00:32:57.493Z,10.50
2023-04-27T00:35:25.719Z,13.10
2023-04-27T00:37:55.185Z,18.90
2023-04-27T00:40:23.287Z,19.70
2023-04-27T00:42:51.459Z,30.60
2023-04-27T00:45:19.634Z,27.10
2023-04-27T00:47:47.850Z,17.90
2023-04-27T00:50:17.208Z,15.20
2023-04-27T00:52:45.793Z,16.90
2023-04-27T00:55:13.955Z,12.50
2023-04-27T00:57:42.131Z,10.00
2023-04-27T01:00:13.681Z,12.30
2023-04-27T01:02:42.384Z,11.10
2023-04-27T01:05:10.948Z,15.20
2023-04-27T01:07:40.968Z,13.30
2023-04-27T01:10:09.558Z,11.30
2023-04-27T01:12:37.722Z,11.00
2023-04-27T01:15:07.405Z,11.50
2023-04-27T01:17:36.084Z,11.50
2023-04-27T01:20:09.113Z,10.40
2023-04-27T01:22:38.292Z,13.00
2023-04-27T01:25:08.189Z,12.40
2023-04-27T01:27:36.378Z,12.20
2023-04-27T01:30:06.577Z,16.90
2023-04-27T01:32:38.061Z,11.60
2023-04-27T01:35:07.428Z,14.50
2023-04-27T01:37:36.038Z,12.50
2023-04-27T01:40:06.806Z,15.70
2023-04-27T01:42:35.140Z,11.70
2023-04-27T01:45:04.340Z,12.50
2023-04-27T01:47:33.269Z,13.00
2023-04-27T01:50:01.807Z,12.00
2023-04-27T01:52:30.289Z,9.60
2023-04-27T01:54:58.460Z,11.30
2023-04-27T01:57:27.245Z,13.80
2023-04-27T01:59:57.175Z,14.30
2023-04-27T02:02:25.603Z,15.20
2023-04-27T02:04:54.298Z,12.70
2023-04-27T02:07:22.704Z,13.30
2023-04-27T02:09:51.085Z,14.80
2023-04-27T02:12:19.254Z,14.70
2023-04-27T02:14:47.423Z,11.20
2023-04-27T02:17:15.798Z,12.60
2023-04-27T02:19:43.974Z,10.40
2023-04-27T02:22:12.552Z,11.90
2023-04-27T02:24:40.831Z,8.80
2023-04-27T02:27:09.105Z,10.60
2023-04-27T02:29:39.621Z,12.20
2023-04-27T02:34:36.688Z,10.80
2023-04-27T02:37:05.203Z,10.90
2023-04-27T02:39:33.344Z,12.20
2023-04-27T02:42:03.161Z,8.80
2023-04-27T02:44:31.339Z,11.30
2023-04-27T02:46:59.580Z,10.80
2023-04-27T02:49:27.878Z,10.40
2023-04-27T02:51:57.071Z,12.40
2023-04-27T02:54:25.757Z,9.80
2023-04-27T02:56:53.921Z,10.80
2023-04-27T02:59:22.094Z,10.70
2023-04-27T03:01:50.265Z,11.20
2023-04-27T03:04:18.825Z,10.70
2023-04-27T03:06:47.327Z,10.50
2023-04-27T03:09:17.294Z,8.60
2023-04-27T03:11:45.616Z,12.20
2023-04-27T03:14:14.012Z,7.90
2023-04-27T03:16:42.194Z,13.40
2023-04-27T03:19:10.989Z,10.90
2023-04-27T03:21:39.633Z,13.70
2023-04-27T03:24:07.810Z,13.90
2023-04-27T03:26:36.188Z,11.10
2023-04-27T03:29:05.490Z,13.30
2023-04-27T03:31:33.698Z,13.60
2023-04-27T03:34:01.833Z,10.00
2023-04-27T03:36:30.108Z,13.10
2023-04-27T03:38:58.173Z,10.30
2023-04-27T03:41:26.660Z,11.70
2023-04-27T03:43:54.826Z,8.50
2023-04-27T03:46:23.020Z,9.40
2023-04-27T03:48:51.173Z,9.00
2023-04-27T03:51:19.456Z,10.30
2023-04-27T03:53:48.130Z,13.40
2023-04-27T03:56:16.509Z,10.00
2023-04-27T03:58:44.690Z,11.50
2023-04-27T04:01:22.096Z,9.20
2023-04-27T04:03:52.003Z,7.70
2023-04-27T04:06:20.931Z,8.90
2023-04-27T04:08:49.142Z,11.50
2023-04-27T04:11:17.824Z,12.30
2023-04-27T04:13:46.309Z,8.90
2023-04-27T04:16:14.712Z,8.20
2023-04-27T04:18:43.165Z,12.10
2023-04-27T04:21:12.154Z,10.60
2023-04-27T04:23:42.890Z,9.50
2023-04-27T04:26:11.574Z,10.50
2023-04-27T04:28:39.951Z,10.80
2023-04-27T04:31:09.963Z,10.20
2023-04-27T04:33:38.167Z,11.40
2023-04-27T04:36:07.055Z,10.40
2023-04-27T04:38:35.714Z,8.00
2023-04-27T04:41:04.102Z,8.70
2023-04-27T04:43:34.560Z,14.00
2023-04-27T04:46:06.609Z,11.00
2023-04-27T04:48:35.774Z,10.40
2023-04-27T04:51:07.354Z,8.70
2023-04-27T04:53:35.905Z,9.70
2023-04-27T04:56:11.636Z,12.30
2023-04-27T04:58:40.357Z,10.60
2023-04-27T05:01:08.685Z,8.00
2023-04-27T05:03:37.131Z,12.20
2023-04-27T05:06:06.082Z,11.20
2023-04-27T05:08:34.365Z,9.90
2023-04-27T05:11:02.538Z,14.90
2023-04-27T05:13:31.227Z,17.90
2023-04-27T05:15:59.418Z,21.00
2023-04-27T05:18:27.661Z,37.10
2023-04-27T05:20:56.356Z,33.80
2023-04-27T05:23:24.516Z,32.00
2023-04-27T05:25:53.000Z,38.70
2023-04-27T05:28:21.382Z,19.90
2023-04-27T05:30:49.548Z,21.20
2023-04-27T05:33:17.617Z,25.40
2023-04-27T05:35:45.796Z,21.40
2023-04-27T05:38:17.648Z,13.20
2023-04-27T05:40:45.824Z,10.70
2023-04-27T05:43:13.997Z,9.50
2023-04-27T05:45:42.347Z,9.80
2023-04-27T05:48:10.549Z,6.70
2023-04-27T05:50:38.616Z,9.50
2023-04-27T05:53:07.298Z,8.40
2023-04-27T05:55:35.891Z,7.70
2023-04-27T05:58:07.707Z,7.90
2023-04-27T06:00:37.027Z,8.80
2023-04-27T06:03:05.279Z,6.20
2023-04-27T06:05:34.688Z,8.40
2023-04-27T06:08:03.398Z,9.30
2023-04-27T06:10:31.587Z,6.30
2023-04-27T06:13:00.262Z,7.60
2023-04-27T06:15:28.448Z,6.90
2023-04-27T06:17:56.993Z,6.90
2023-04-27T06:20:25.184Z,7.00
2023-04-27T06:22:53.358Z,6.50
2023-04-27T06:25:21.849Z,7.00
2023-04-27T06:27:51.236Z,8.60
2023-04-27T06:30:19.410Z,7.20
2023-04-27T06:32:47.608Z,10.20
2023-04-27T06:35:16.478Z,6.60
2023-04-27T06:37:45.233Z,5.90
2023-04-27T06:40:13.602Z,8.00
2023-04-27T06:42:41.812Z,5.30
2023-04-27T06:45:10.854Z,6.90
2023-04-27T06:47:39.121Z,10.00
2023-04-27T06:50:07.854Z,8.70
2023-04-27T06:52:36.027Z,10.20
2023-04-27T06:55:04.620Z,7.10
2023-04-27T06:57:32.684Z,9.90
2023-04-27T07:00:01.092Z,7.60
2023-04-27T07:02:29.351Z,9.10
2023-04-27T07:04:57.872Z,9.00
2023-04-27T07:07:25.982Z,13.40
2023-04-27T07:09:54.154Z,8.10
2023-04-27T07:12:22.328Z,7.30
2023-04-27T07:14:51.221Z,7.70
2023-04-27T07:17:19.402Z,11.20
2023-04-27T07:19:47.662Z,8.60
2023-04-27T07:22:16.355Z,6.50
2023-04-27T07:24:44.827Z,5.40
2023-04-27T07:27:13.819Z,7.10
2023-04-27T07:29:42.613Z,5.90
2023-04-27T07:32:10.845Z,9.30
2023-04-27T07:34:51.971Z,9.50
2023-04-27T07:37:22.508Z,5.50
2023-04-27T07:39:54.658Z,6.40
2023-04-27T07:42:22.717Z,6.80
2023-04-27T07:44:52.218Z,7.80
2023-04-27T07:47:20.491Z,7.00
2023-04-27T07:49:48.689Z,6.40
2023-04-27T07:52:16.837Z,7.40
2023-04-27T07:54:44.912Z,6.30
2023-04-27T07:57:12.975Z,5.40
2023-04-27T07:59:41.147Z,5.50
2023-04-27T08:02:19.241Z,4.60
2023-04-27T08:04:50.301Z,4.60
2023-04-27T08:07:19.632Z,8.50
2023-04-27T08:09:52.381Z,7.20
2023-04-27T08:12:20.545Z,6.20
2023-04-27T08:14:48.715Z,5.30
2023-04-27T08:17:18.558Z,4.80
2023-04-27T08:19:46.716Z,6.90
2023-04-27T08:22:15.079Z,10.30
2023-04-27T08:24:43.249Z,7.80
2023-04-27T08:27:11.467Z,7.20
2023-04-27T08:29:39.599Z,8.00
2023-04-27T08:32:08.478Z,7.80
2023-04-27T08:34:36.623Z,7.30
2023-04-27T08:37:04.939Z,5.00
2023-04-27T08:39:33.207Z,6.50
2023-04-27T08:42:01.391Z,5.80
2023-04-27T08:44:29.863Z,5.90
2023-04-27T08:46:58.036Z,6.80
2023-04-27T08:49:26.419Z,8.20
2023-04-27T08:51:54.581Z,7.40
2023-04-27T08:54:22.752Z,6.40
2023-04-27T08:56:50.966Z,7.50
2023-04-27T08:59:19.195Z,6.80
2023-04-27T09:01:49.291Z,6.50
2023-04-27T09:04:18.763Z,5.40
2023-04-27T09:06:47.099Z,6.30
2023-04-27T09:09:25.541Z,6.20
2023-04-27T09:11:53.793Z,6.70
2023-04-27T09:14:24.018Z,6.60
2023-04-27T09:16:58.091Z,5.00
2023-04-27T09:19:28.738Z,4.00
2023-04-27T09:22:08.073Z,5.80
2023-04-27T09:24:36.455Z,6.70
2023-04-27T09:27:05.359Z,6.20
2023-04-27T09:29:37.837Z,4.60
2023-04-27T09:32:20.936Z,8.80
2023-04-27T09:34:49.321Z,6.00
2023-04-27T09:37:17.591Z,4.10
2023-04-27T09:39:46.278Z,5.10
2023-04-27T09:42:16.088Z,6.90
2023-04-27T09:44:44.265Z,5.20
2023-04-27T09:47:13.877Z,8.60
2023-04-27T09:49:42.138Z,7.10
2023-04-27T09:52:10.630Z,4.90
2023-04-27T09:54:39.201Z,6.40
2023-04-27T09:57:21.813Z,8.10
2023-04-27T10:00:20.711Z,6.30
2023-04-27T10:03:04.410Z,5.40
2023-04-27T10:05:43.366Z,7.40
2023-04-27T10:08:11.842Z,6.00
2023-04-27T10:10:48.315Z,5.20
2023-04-27T10:13:24.690Z,6.50
2023-04-27T10:15:53.880Z,6.50
2023-04-27T10:18:27.784Z,5.10
2023-04-27T10:20:56.154Z,6.20
2023-04-27T10:23:25.773Z,5.30
2023-04-27T10:25:54.869Z,5.60
2023-04-27T10:28:22.930Z,6.50
2023-04-27T10:30:51.226Z,4.90
2023-04-27T10:33:22.018Z,6.40
2023-04-27T10:36:00.626Z,8.30
2023-04-27T10:38:32.923Z,7.90
2023-04-27T10:41:07.153Z,6.70
2023-04-27T10:43:35.834Z,8.30
2023-04-27T10:46:22.138Z,4.80
2023-04-27T10:48:50.391Z,6.50
2023-04-27T10:51:18.581Z,7.90
2023-04-27T10:53:52.676Z,8.90
2023-04-27T10:56:20.954Z,4.50
2023-04-27T10:58:49.732Z,6.80
2023-04-27T11:01:27.867Z,8.40
2023-04-27T11:03:57.988Z,6.40
2023-04-27T11:06:28.614Z,6.00
2023-04-27T11:08:57.372Z,4.40
2023-04-27T11:11:26.527Z,5.20
2023-04-27T11:13:56.000Z,6.60
2023-04-27T11:16:24.642Z,5.50
2023-04-27T11:18:52.807Z,6.60
2023-04-27T11:21:22.516Z,6.50
2023-04-27T11:23:50.606Z,4.80
2023-04-27T11:26:21.785Z,6.30
2023-04-27T11:28:59.965Z,5.50
2023-04-27T11:31:38.401Z,5.30
2023-04-27T11:34:08.162Z,5.20
2023-04-27T11:36:36.756Z,4.90
2023-04-27T11:39:06.776Z,6.20
2023-04-27T11:41:39.320Z,5.30
2023-04-27T11:44:09.029Z,4.30
2023-04-27T11:46:38.189Z,8.00
2023-04-27T11:49:10.838Z,7.50
2023-04-27T11:51:40.329Z,4.90
2023-04-27T11:54:08.528Z,5.70
2023-04-27T11:56:41.798Z,24.10
2023-04-27T11:59:27.894Z,6.10
2023-04-27T12:01:56.187Z,8.40
2023-04-27T12:04:24.336Z,7.40
2023-04-27T12:06:52.814Z,12.80
2023-04-27T12:09:21.091Z,5.50
2023-04-27T12:11:49.263Z,7.30
2023-04-27T12:14:19.586Z,7.60
2023-04-27T12:16:47.678Z,5.70
2023-04-27T12:19:15.828Z,6.60
2023-04-27T12:21:43.898Z,6.30
2023-04-27T12:24:12.599Z,5.90
2023-04-27T12:26:41.166Z,6.10
2023-04-27T12:29:09.426Z,7.80
2023-04-27T12:31:37.817Z,6.30
2023-04-27T12:34:06.216Z,5.10
2023-04-27T12:36:34.363Z,4.90
2023-04-27T12:39:17.175Z,7.40
2023-04-27T12:41:46.479Z,5.30
2023-04-27T12:44:15.447Z,7.80
2023-04-27T12:46:44.865Z,5.80
2023-04-27T12:49:13.049Z,6.50
2023-04-27T12:51:41.940Z,6.70
2023-04-27T12:54:11.377Z,7.10
2023-04-27T12:56:39.917Z,9.20
2023-04-27T12:59:08.868Z,8.00
2023-04-27T13:01:37.557Z,5.70
2023-04-27T13:04:07.428Z,6.80
2023-04-27T13:06:35.779Z,6.40
2023-04-27T13:09:04.165Z,7.40
2023-04-27T13:11:32.526Z,3.40
2023-04-27T13:14:02.163Z,9.20
2023-04-27T13:16:30.370Z,3.20
2023-04-27T13:18:58.585Z,4.20
2023-04-27T13:21:27.266Z,3.70
2023-04-27T13:23:59.543Z,5.40
2023-04-27T13:26:28.320Z,5.50
2023-04-27T13:28:57.422Z,6.30
2023-04-27T13:31:25.692Z,6.00
2023-04-27T13:33:53.960Z,4.40
2023-04-27T13:36:22.574Z,5.70
2023-04-27T13:38:51.131Z,6.50
2023-04-27T13:41:19.405Z,5.00
2023-04-27T13:43:47.485Z,6.20
2023-04-27T13:46:15.673Z,4.80
2023-04-27T13:48:43.816Z,4.80
2023-04-27T13:51:11.985Z,5.40
2023-04-27T13:53:40.379Z,5.60
2023-04-27T13:56:08.671Z,7.00
2023-04-27T13:58:37.326Z,5.40
2023-04-27T14:01:05.644Z,5.00
2023-04-27T14:03:34.330Z,6.00
2023-04-27T14:06:02.770Z,7.20
2023-04-27T14:08:31.854Z,5.10
2023-04-27T14:11:00.140Z,4.00
2023-04-27T14:13:28.202Z,3.40
2023-04-27T14:15:56.375Z,5.40
2023-04-27T14:18:31.918Z,3.70
2023-04-27T14:21:01.216Z,5.40
2023-04-27T14:23:29.800Z,3.20
2023-04-27T14:25:58.078Z,5.20
2023-04-27T14:28:26.687Z,4.60
2023-04-27T14:30:54.729Z,7.20
2023-04-27T14:33:22.907Z,5.70
2023-04-27T14:35:51.175Z,5.80
2023-04-27T14:38:19.248Z,10.50
2023-04-27T14:40:47.826Z,5.50
2023-04-27T14:43:17.229Z,7.60
2023-04-27T14:45:52.908Z,7.30
2023-04-27T14:48:22.379Z,5.40
2023-04-27T14:50:50.761Z,5.40
2023-04-27T14:53:18.939Z,6.00
2023-04-27T14:55:47.105Z,5.70
2023-04-27T14:58:15.782Z,6.10
2023-04-27T15:00:43.964Z,5.00
2023-04-27T15:03:12.433Z,7.20
2023-04-27T15:05:40.816Z,4.70
2023-04-27T15:08:08.988Z,11.20
2023-04-27T15:10:37.160Z,18.00
2023-04-27T15:13:05.342Z,12.00
2023-04-27T15:15:33.401Z,29.80
2023-04-27T15:18:01.669Z,39.10
2023-04-27T15:20:29.949Z,24.40
2023-04-27T15:22:58.229Z,10.70
2023-04-27T15:25:26.395Z,10.20
2023-04-27T15:27:54.672Z,11.40
2023-04-27T15:30:22.952Z,9.80
2023-04-27T15:32:51.059Z,7.10
2023-04-27T15:35:19.320Z,6.40
2023-04-27T15:37:48.071Z,4.90
2023-04-27T15:40:16.558Z,7.70
2023-04-27T15:42:44.729Z,7.00
2023-04-27T15:45:12.908Z,8.90
2023-04-27T15:47:41.109Z,5.90
2023-04-27T15:50:09.586Z,6.00
2023-04-27T15:52:37.722Z,6.10
2023-04-27T15:55:06.201Z,6.10
2023-04-27T15:57:34.795Z,6.80
2023-04-27T16:00:07.258Z,7.00
2023-04-27T16:02:39.747Z,7.10
2023-04-27T16:05:08.925Z,5.80
2023-04-27T16:07:37.616Z,9.10
2023-04-27T16:10:07.015Z,8.20
2023-04-27T16:12:36.224Z,5.60
2023-04-27T16:15:04.991Z,5.10
2023-04-27T16:17:37.371Z,4.50
2023-04-27T16:20:09.705Z,5.10
2023-04-27T16:22:38.215Z,5.00
2023-04-27T16:25:10.825Z,7.00
2023-04-27T16:27:39.681Z,8.50
2023-04-27T16:30:08.364Z,9.80
2023-04-27T16:32:38.127Z,11.60
2023-04-27T16:35:08.066Z,13.50
2023-04-27T16:37:36.461Z,11.20
2023-04-27T16:40:07.057Z,8.30
2023-04-27T16:42:35.685Z,5.70
2023-04-27T16:45:04.462Z,4.50
2023-04-27T16:47:32.776Z,6.10
2023-04-27T16:50:01.206Z,9.00
2023-04-27T16:52:29.490Z,6.40
2023-04-27T16:54:57.669Z,10.30
2023-04-27T16:57:26.053Z,11.30
2023-04-27T16:59:54.213Z,21.60
2023-04-27T17:02:25.649Z,11.30
2023-04-27T17:04:54.635Z,10.00
2023-04-27T17:07:23.095Z,7.80
2023-04-27T17:09:51.306Z,5.80
2023-04-27T17:12:19.581Z,8.60
2023-04-27T17:14:47.646Z,8.20
2023-04-27T17:17:15.720Z,6.40
2023-04-27T17:19:43.898Z,6.20
2023-04-27T17:22:13.496Z,4.60
2023-04-27T17:24:41.692Z,7.70
2023-04-27T17:27:10.745Z,9.10
2023-04-27T17:29:38.831Z,9.70
2023-04-27T17:32:07.110Z,7.80
2023-04-27T17:34:35.995Z,9.50
2023-04-27T17:37:04.375Z,9.00
2023-04-27T17:39:33.260Z,14.90
2023-04-27T17:42:01.442Z,14.60
2023-04-27T17:44:29.609Z,35.50
2023-04-27T17:46:57.698Z,26.30
2023-04-27T17:49:25.975Z,15.00
2023-04-27T17:51:54.127Z,12.50
2023-04-27T17:54:22.314Z,9.60
2023-04-27T17:56:50.368Z,8.60
2023-04-27T17:59:18.658Z,6.30
2023-04-27T18:01:47.561Z,10.40
2023-04-27T18:04:15.852Z,8.70
2023-04-27T18:06:44.084Z,9.70
2023-04-27T18:09:12.741Z,17.80
2023-04-27T18:11:41.450Z,22.90
2023-04-27T18:14:09.532Z,74.20
2023-04-27T18:16:37.809Z,71.10
2023-04-27T18:19:06.387Z,67.40
2023-04-27T18:21:34.556Z,43.30
2023-04-27T18:24:02.722Z,24.00
2023-04-27T18:26:31.408Z,32.50
2023-04-27T18:28:59.708Z,16.70
2023-04-27T18:31:28.699Z,16.90
2023-04-27T18:33:57.049Z,9.30
2023-04-27T18:36:27.687Z,11.00
2023-04-27T18:38:56.155Z,13.30
2023-04-27T18:41:24.950Z,9.00
2023-04-27T18:43:53.317Z,5.90
2023-04-27T18:46:21.564Z,10.70
2023-04-27T18:48:49.772Z,13.90
2023-04-27T18:51:17.836Z,16.50
2023-04-27T18:53:46.006Z,15.20
2023-04-27T18:56:15.001Z,13.70
2023-04-27T18:58:43.070Z,14.80
2023-04-27T19:01:22.372Z,9.30
2023-04-27T19:03:51.114Z,9.80
2023-04-27T19:06:21.128Z,8.00
2023-04-27T19:08:49.896Z,8.60
2023-04-27T19:11:22.299Z,7.60
2023-04-27T19:13:51.052Z,9.40
2023-04-27T19:16:19.277Z,7.30
2023-04-27T19:18:47.600Z,11.90
2023-04-27T19:21:15.870Z,13.50
2023-04-27T19:23:45.791Z,9.90
2023-04-27T19:26:14.338Z,7.50
2023-04-27T19:28:42.763Z,8.00
2023-04-27T19:31:11.060Z,8.50
2023-04-27T19:33:46.787Z,5.70
2023-04-27T19:36:15.252Z,8.60
2023-04-27T19:38:43.594Z,7.30
2023-04-27T19:41:14.261Z,8.10
2023-04-27T19:43:42.641Z,5.50
2023-04-27T19:46:11.054Z,9.90
2023-04-27T19:48:39.299Z,8.70
2023-04-27T19:51:11.147Z,11.50
2023-04-27T19:53:39.417Z,19.00
2023-04-27T19:56:07.696Z,22.60
2023-04-27T19:58:36.075Z,41.20
2023-04-27T20:01:04.244Z,40.30
2023-04-27T20:03:32.544Z,52.10
2023-04-27T20:06:01.139Z,46.10
2023-04-27T20:08:29.679Z,39.90
2023-04-27T20:10:57.859Z,38.90
2023-04-27T20:13:26.136Z,36.50
2023-04-27T20:15:54.365Z,30.50
2023-04-27T20:18:22.569Z,21.40
2023-04-27T20:20:50.845Z,21.10
2023-04-27T20:23:19.022Z,18.90
2023-04-27T20:25:47.191Z,17.70
2023-04-27T20:28:15.264Z,14.80
2023-04-27T20:30:43.356Z,19.50
2023-04-27T20:33:13.385Z,14.40
2023-04-27T20:35:42.760Z,18.70
2023-04-27T20:38:10.921Z,14.30
2023-04-27T20:40:39.707Z,10.80
2023-04-27T20:43:08.190Z,11.50
2023-04-27T20:45:36.705Z,11.30
2023-04-27T20:48:08.060Z,12.90
2023-04-27T20:50:37.215Z,15.70
2023-04-27T20:53:05.793Z,17.40
2023-04-27T20:55:34.562Z,21.00
2023-04-27T20:58:02.752Z,19.90
2023-04-27T21:00:30.920Z,18.40
2023-04-27T21:02:59.117Z,21.40
2023-04-27T21:05:27.370Z,23.10
2023-04-27T21:07:55.848Z,21.70
2023-04-27T21:10:24.134Z,24.60
2023-04-27T21:12:52.300Z,30.70
2023-04-27T21:15:20.677Z,30.30
2023-04-27T21:17:48.875Z,34.30
2023-04-27T21:20:17.335Z,33.50
2023-04-27T21:22:45.392Z,32.50
2023-04-27T21:25:13.465Z,25.50
2023-04-27T21:27:41.638Z,28.90
2023-04-27T21:30:10.630Z,26.60
2023-04-27T21:32:39.726Z,24.40
2023-04-27T21:35:08.840Z,27.10
2023-04-27T21:37:37.308Z,28.40
2023-04-27T21:40:06.592Z,31.90
2023-04-27T21:42:34.667Z,26.40
2023-04-27T21:45:04.559Z,28.70
2023-04-27T21:47:32.679Z,34.70
2023-04-27T21:50:00.925Z,36.90
2023-04-27T21:52:29.302Z,46.90
2023-04-27T21:54:57.489Z,58.80
2023-04-27T21:57:25.643Z,50.10
2023-04-27T21:59:53.936Z,33.70
2023-04-27T22:02:22.681Z,35.70
2023-04-27T22:04:51.881Z,34.80
2023-04-27T22:07:20.178Z,28.00
2023-04-27T22:09:48.243Z,26.40
2023-04-27T22:12:16.419Z,20.10
2023-04-27T22:14:44.587Z,23.50
2023-04-27T22:17:12.763Z,24.70
2023-04-27T22:19:41.653Z,19.50
2023-04-27T22:22:10.545Z,28.20
2023-04-27T22:24:38.711Z,20.80
2023-04-27T22:27:06.795Z,25.30
2023-04-27T22:29:35.056Z,38.40
2023-04-27T22:32:03.363Z,62.70
2023-04-27T22:34:32.326Z,48.00
2023-04-27T22:37:00.509Z,27.50
2023-04-27T22:39:28.770Z,22.70
2023-04-27T22:41:56.951Z,22.70
2023-04-27T22:44:25.113Z,26.40
2023-04-27T22:46:53.330Z,28.40
2023-04-27T22:49:21.562Z,27.50
2023-04-27T22:51:50.450Z,31.50
2023-04-27T22:54:18.811Z,32.10
2023-04-27T22:56:47.003Z,31.10
2023-04-27T22:59:15.274Z,28.50
2023-04-27T23:01:43.342Z,26.40
2023-04-27T23:04:11.567Z,25.60
2023-04-27T23:06:39.891Z,22.20
2023-04-27T23:09:08.378Z,22.20
2023-04-27T23:11:36.952Z,26.40
2023-04-27T23:14:05.129Z,22.70
2023-04-27T23:16:33.311Z,24.50
2023-04-27T23:19:01.878Z,28.80
2023-04-27T23:21:30.049Z,29.40
2023-04-27T23:23:58.222Z,31.50
2023-04-27T23:26:26.394Z,34.70
2023-04-27T23:28:54.703Z,29.70
2023-04-27T23:31:23.930Z,29.80
2023-04-27T23:33:52.448Z,29.80
2023-04-27T23:36:20.518Z,34.60
2023-04-27T23:38:48.694Z,27.90
2023-04-27T23:41:16.765Z,24.20
2023-04-27T23:43:45.138Z,27.20
2023-04-27T23:46:13.457Z,27.30
2023-04-27T23:48:42.720Z,31.50
2023-04-27T23:51:10.782Z,27.80
2023-04-27T23:53:38.951Z,35.20
2023-04-27T23:56:19.022Z,38.20
2023-04-27T23:58:47.178Z,30.50
